Time;durP1;ratioP1;P1;durP2;ratioP2;P2;SDS_P1;SDS_P2;PMS_P1;PMS_P2;Temp;Humidity;BMP_temperature;BMP_pressure;BME280_temperature;BME280_humidity;BME280_pressure;Samples;Min_cycle;Max_cycle;Signal;HPM_P1;HPM_P2
2022/10/12 00:02:05;;;;;;;9.05;2.95;;;12.80;99.90;;;;;;5094984;28;20034;-73
2022/10/12 00:04:31;;;;;;;6.93;2.58;;;12.70;99.90;;;;;;5092134;28;20032;-73
2022/10/12 00:06:57;;;;;;;7.95;2.90;;;12.70;99.90;;;;;;5096255;28;20031;-73
2022/10/12 00:09:22;;;;;;;8.77;2.80;;;12.70;99.90;;;;;;5096314;28;20144;-73
2022/10/12 00:11:48;;;;;;;9.48;3.10;;;12.70;99.90;;;;;;5115167;28;20023;-73
2022/10/12 00:14:13;;;;;;;10.50;3.42;;;12.60;99.90;;;;;;5096971;28;20028;-72
2022/10/12 00:16:39;;;;;;;9.18;2.63;;;12.60;99.90;;;;;;5095968;28;20042;-73
2022/10/12 00:19:05;;;;;;;7.10;2.40;;;12.60;99.90;;;;;;5097009;28;20119;-72
2022/10/12 00:21:31;;;;;;;8.35;2.60;;;12.60;99.90;;;;;;5096223;28;20035;-72
2022/10/12 00:24:00;;;;;;;9.52;2.35;;;12.70;99.90;;;;;;5114934;28;20028;-72
2022/10/12 00:26:27;;;;;;;7.00;2.30;;;12.70;99.90;;;;;;5114458;28;20066;-72
2022/10/12 00:28:56;;;;;;;7.50;2.60;;;12.70;99.90;;;;;;5114766;28;20024;-72
2022/10/12 00:31:22;;;;;;;6.03;2.35;;;12.70;99.90;;;;;;5114189;28;20024;-73
2022/10/12 00:33:47;;;;;;;7.00;2.17;;;12.70;99.90;;;;;;5114878;28;20469;-73
2022/10/12 00:36:15;;;;;;;5.90;2.00;;;12.60;99.90;;;;;;5114871;28;20426;-72
2022/10/12 00:38:41;;;;;;;7.32;2.45;;;12.60;99.90;;;;;;5114103;28;20069;-73
2022/10/12 00:41:06;;;;;;;8.43;2.58;;;12.60;99.90;;;;;;5096431;28;20030;-72
2022/10/12 00:43:37;;;;;;;7.45;2.30;;;12.60;99.90;;;;;;5095651;28;20024;-73
2022/10/12 00:46:10;;;;;;;7.07;1.77;;;12.60;99.90;;;;;;5096153;28;20079;-72
2022/10/12 00:48:36;;;;;;;8.82;2.13;;;12.60;99.90;;;;;;5095619;28;20027;-73
2022/10/12 00:51:02;;;;;;;4.22;2.15;;;12.60;99.90;;;;;;5096296;28;20034;-72
2022/10/12 00:53:33;;;;;;;12.15;3.05;;;12.50;99.90;;;;;;5095545;28;20180;-72
2022/10/12 00:56:01;;;;;;;8.02;2.10;;;12.50;99.90;;;;;;5096154;28;20031;-72
2022/10/12 00:58:31;;;;;;;8.40;2.35;;;12.40;99.90;;;;;;5095333;28;20033;-72
2022/10/12 01:01:04;;;;;;;9.00;2.33;;;12.40;99.90;;;;;;5096304;28;20032;-73
2022/10/12 01:03:31;;;;;;;8.45;2.13;;;12.30;99.90;;;;;;5095417;28;20105;-73
2022/10/12 01:05:57;;;;;;;7.20;2.33;;;12.30;99.90;;;;;;5096030;28;20076;-72
2022/10/12 01:08:23;;;;;;;4.43;1.90;;;12.20;99.90;;;;;;5113244;28;20024;-73
2022/10/12 01:10:48;;;;;;;6.45;1.80;;;12.20;99.90;;;;;;5113895;28;20077;-73
2022/10/12 01:13:14;;;;;;;7.25;2.05;;;12.20;99.90;;;;;;5095872;28;20019;-72
2022/10/12 01:15:51;;;;;;;7.90;2.60;;;12.20;99.90;;;;;;5095097;28;20027;-73
2022/10/12 01:18:38;;;;;;;7.38;1.98;;;12.20;99.90;;;;;;5095214;28;20533;-72
2022/10/12 01:21:19;;;;;;;7.60;1.88;;;12.20;99.90;;;;;;5114113;28;20076;-72
2022/10/12 01:24:00;;;;;;;5.20;2.00;;;12.20;99.90;;;;;;5095188;28;20024;-73
2022/10/12 01:27:00;;;;;;;8.27;1.90;;;12.10;99.90;;;;;;5094760;28;20070;-73
2022/10/12 01:30:03;;;;;;;6.80;2.20;;;12.10;99.90;;;;;;5094899;28;20031;-73
2022/10/12 01:32:42;;;;;;;7.90;2.17;;;12.00;99.90;;;;;;5094742;28;20023;-73
2022/10/12 01:35:24;;;;;;;11.15;2.70;;;12.00;99.90;;;;;;5113844;28;20027;-73
2022/10/12 01:37:58;;;;;;;5.88;2.00;;;12.00;99.90;;;;;;5095677;28;20039;-73
2022/10/12 01:40:38;;;;;;;7.90;2.13;;;12.00;99.90;;;;;;5094733;28;20032;-74
2022/10/12 01:43:04;;;;;;;6.95;2.17;;;12.00;99.90;;;;;;5113555;28;20023;-73
2022/10/12 01:45:30;;;;;;;4.55;1.80;;;12.00;99.90;;;;;;5112736;28;20038;-73
2022/10/12 01:47:55;;;;;;;6.70;2.08;;;12.00;99.90;;;;;;5095298;28;20062;-74
2022/10/12 01:50:26;;;;;;;9.05;2.00;;;11.90;99.90;;;;;;5095139;28;20540;-74
2022/10/12 01:52:58;;;;;;;5.10;2.05;;;11.90;99.90;;;;;;5113491;28;20020;-73
2022/10/12 01:55:33;;;;;;;8.40;1.85;;;11.90;99.90;;;;;;5112967;28;20407;-74
2022/10/12 01:58:40;;;;;;;8.55;1.83;;;11.80;99.90;;;;;;5094704;28;20048;-72
2022/10/12 02:01:36;;;;;;;6.30;1.65;;;11.80;99.90;;;;;;5095006;28;20047;-72
2022/10/12 02:04:20;;;;;;;7.35;1.85;;;11.80;99.90;;;;;;5095027;28;20026;-71
2022/10/12 02:06:51;;;;;;;9.60;2.10;;;11.70;99.90;;;;;;5094095;28;20043;-72
2022/10/12 02:09:24;;;;;;;4.22;1.58;;;11.70;99.90;;;;;;5094953;28;20048;-72
2022/10/12 02:11:53;;;;;;;5.47;1.85;;;11.70;99.90;;;;;;5094668;28;20545;-72
2022/10/12 02:14:23;;;;;;;7.78;2.10;;;11.70;99.90;;;;;;5112967;28;20027;-72
2022/10/12 02:17:00;;;;;;;5.72;1.98;;;11.70;99.90;;;;;;5094218;28;20036;-72
2022/10/12 02:19:30;;;;;;;10.18;2.00;;;11.70;99.90;;;;;;5112361;28;20070;-73
2022/10/12 02:21:59;;;;;;;7.78;2.08;;;11.70;99.90;;;;;;5112935;28;20529;-72
2022/10/12 02:24:27;;;;;;;6.10;1.80;;;11.70;99.90;;;;;;5112158;28;20543;-74
2022/10/12 02:26:53;;;;;;;6.05;2.17;;;11.70;99.90;;;;;;5087946;28;20062;-72
2022/10/12 02:29:24;;;;;;;5.50;2.08;;;11.70;99.90;;;;;;5073768;28;20081;-72
2022/10/12 02:31:59;;;;;;;8.23;1.80;;;11.70;99.90;;;;;;5074092;28;20026;-72
2022/10/12 02:34:28;;;;;;;11.25;2.20;;;11.60;99.90;;;;;;5073883;28;20035;-74
2022/10/12 02:37:10;;;;;;;9.57;2.22;;;11.70;99.90;;;;;;5074153;28;20473;-72
2022/10/12 02:39:44;;;;;;;6.65;2.40;;;11.60;99.90;;;;;;5073480;28;20054;-73
2022/10/12 02:42:17;;;;;;;7.10;2.40;;;11.70;99.90;;;;;;5092389;28;20043;-72
2022/10/12 02:44:44;;;;;;;8.77;2.05;;;11.60;99.90;;;;;;5091355;28;20063;-72
2022/10/12 02:47:11;;;;;;;9.48;2.20;;;11.60;99.90;;;;;;5091914;28;20028;-72
2022/10/12 02:49:38;;;;;;;6.70;2.40;;;11.60;99.90;;;;;;5073385;28;20024;-72
2022/10/12 02:52:05;;;;;;;8.35;2.45;;;11.60;99.90;;;;;;5074130;28;20093;-72
2022/10/12 02:54:31;;;;;;;7.93;1.88;;;11.60;99.90;;;;;;5091588;28;20024;-72
2022/10/12 02:56:57;;;;;;;8.02;1.85;;;11.60;99.90;;;;;;5092065;28;20044;-72
2022/10/12 02:59:22;;;;;;;9.65;2.15;;;11.60;99.90;;;;;;5074001;28;20372;-72
2022/10/12 03:01:48;;;;;;;7.75;2.15;;;11.60;99.90;;;;;;5091420;28;20042;-72
2022/10/12 03:04:14;;;;;;;10.05;2.30;;;11.60;99.90;;;;;;5074100;28;20028;-73
2022/10/12 03:06:41;;;;;;;11.52;2.40;;;11.60;99.90;;;;;;5091392;28;20032;-73
2022/10/12 03:09:07;;;;;;;8.52;3.05;;;11.50;99.90;;;;;;5074117;28;20070;-72
2022/10/12 03:11:33;;;;;;;6.25;2.20;;;11.50;99.90;;;;;;5073193;28;20038;-73
2022/10/12 03:13:59;;;;;;;7.07;2.05;;;11.50;99.90;;;;;;5073927;28;20024;-72
2022/10/12 03:16:25;;;;;;;10.38;2.20;;;11.50;99.90;;;;;;5073859;28;20032;-73
2022/10/12 03:18:50;;;;;;;8.82;2.38;;;11.40;99.90;;;;;;5091348;28;20028;-73
2022/10/12 03:21:16;;;;;;;7.35;2.28;;;11.40;99.90;;;;;;5073997;28;20039;-73
2022/10/12 03:23:41;;;;;;;9.32;2.20;;;11.30;99.90;;;;;;5072933;28;20028;-73
2022/10/12 03:26:08;;;;;;;7.18;2.25;;;11.30;99.90;;;;;;5073654;28;20052;-73
2022/10/12 03:28:34;;;;;;;9.35;2.63;;;11.20;99.90;;;;;;5073250;28;20100;-73
2022/10/12 03:31:00;;;;;;;4.95;2.00;;;11.20;99.90;;;;;;5073761;28;20032;-72
2022/10/12 03:33:26;;;;;;;8.13;2.42;;;11.00;99.90;;;;;;5073873;28;20020;-72
2022/10/12 03:35:51;;;;;;;10.63;2.30;;;11.00;99.90;;;;;;5073101;28;20031;-73
2022/10/12 03:38:18;;;;;;;6.93;2.13;;;11.00;99.90;;;;;;5073555;28;20036;-73
2022/10/12 03:40:44;;;;;;;8.07;2.25;;;11.00;99.90;;;;;;5074506;28;20535;-73
2022/10/12 03:43:10;;;;;;;9.07;2.40;;;11.00;99.90;;;;;;5077467;28;20120;-72
2022/10/12 03:45:36;;;;;;;6.93;1.98;;;11.00;99.90;;;;;;5094806;28;20047;-73
2022/10/12 03:48:03;;;;;;;6.72;2.53;;;11.00;99.90;;;;;;5077285;28;20480;-72
2022/10/12 03:50:28;;;;;;;6.03;2.10;;;11.00;99.90;;;;;;5077013;28;20468;-74
2022/10/12 03:52:54;;;;;;;5.70;2.15;;;11.00;99.90;;;;;;5076865;28;20024;-72
2022/10/12 03:55:20;;;;;;;9.20;2.70;;;11.00;99.90;;;;;;5076931;28;20071;-72
2022/10/12 03:57:45;;;;;;;7.43;2.03;;;11.00;99.90;;;;;;5076370;28;20039;-72
2022/10/12 04:00:12;;;;;;;9.77;2.28;;;10.90;99.90;;;;;;5077125;28;20473;-73
2022/10/12 04:02:38;;;;;;;6.82;2.00;;;10.90;99.90;;;;;;5076002;28;20031;-73
2022/10/12 04:05:04;;;;;;;9.80;3.03;;;10.90;99.90;;;;;;5077014;28;20028;-73
2022/10/12 04:07:30;;;;;;;7.50;2.25;;;10.90;99.90;;;;;;5095087;28;20084;-73
2022/10/12 04:09:56;;;;;;;12.88;2.50;;;10.90;99.90;;;;;;5094756;28;20111;-73
2022/10/12 04:12:21;;;;;;;6.85;2.60;;;11.00;99.90;;;;;;5094952;28;20385;-73
2022/10/12 04:14:47;;;;;;;6.18;2.33;;;11.00;99.90;;;;;;5076006;28;20024;-73
2022/10/12 04:17:15;;;;;;;7.47;2.25;;;10.90;99.90;;;;;;5094801;28;20028;-73
2022/10/12 04:19:40;;;;;;;8.63;2.65;;;10.90;99.90;;;;;;5076013;28;20114;-73
2022/10/12 04:22:06;;;;;;;6.53;2.28;;;11.00;99.90;;;;;;5076623;28;20162;-73
2022/10/12 04:24:32;;;;;;;7.35;2.33;;;11.00;99.90;;;;;;5075866;28;20048;-74
2022/10/12 04:26:57;;;;;;;6.22;2.40;;;11.00;99.90;;;;;;5083312;28;20039;-72
2022/10/12 04:29:23;;;;;;;10.52;2.45;;;10.90;99.90;;;;;;5096734;28;20031;-72
2022/10/12 04:31:48;;;;;;;7.95;2.33;;;10.90;99.90;;;;;;5095994;28;20514;-72
2022/10/12 04:34:14;;;;;;;7.40;2.15;;;10.90;99.90;;;;;;5096736;28;20027;-73
2022/10/12 04:36:39;;;;;;;12.60;2.50;;;11.00;99.90;;;;;;5095869;28;20059;-73
2022/10/12 04:39:05;;;;;;;7.70;2.33;;;11.00;99.90;;;;;;5096895;28;20024;-73
2022/10/12 04:41:31;;;;;;;9.68;2.25;;;11.00;99.90;;;;;;5096500;28;20024;-73
2022/10/12 04:43:57;;;;;;;8.52;2.03;;;11.00;99.90;;;;;;5096026;28;20030;-73
2022/10/12 04:46:22;;;;;;;9.80;2.35;;;11.00;99.90;;;;;;5114480;28;20496;-72
2022/10/12 04:48:48;;;;;;;6.80;1.77;;;11.00;99.90;;;;;;5095518;28;20030;-73
2022/10/12 04:51:13;;;;;;;5.45;2.15;;;11.00;99.90;;;;;;5114727;28;20034;-73
2022/10/12 04:53:39;;;;;;;17.67;2.10;;;11.00;99.90;;;;;;5113177;28;20115;-73
2022/10/12 04:56:06;;;;;;;7.57;2.35;;;11.00;99.90;;;;;;5114773;28;20032;-73
2022/10/12 04:58:31;;;;;;;5.20;2.05;;;11.00;99.90;;;;;;5096024;28;20110;-73
2022/10/12 05:00:57;;;;;;;7.95;2.17;;;11.00;99.90;;;;;;5095789;28;20127;-73
2022/10/12 05:03:24;;;;;;;8.80;2.10;;;11.00;99.90;;;;;;5096191;28;20024;-73
2022/10/12 05:05:50;;;;;;;9.35;2.58;;;11.00;99.90;;;;;;5113548;28;20023;-72
2022/10/12 05:08:16;;;;;;;13.38;5.40;;;10.90;99.90;;;;;;5096171;28;20079;-72
2022/10/12 05:10:41;;;;;;;9.27;2.60;;;10.90;99.90;;;;;;5095254;28;20118;-73
2022/10/12 05:13:07;;;;;;;7.40;2.10;;;10.90;99.90;;;;;;5095941;28;20024;-73
2022/10/12 05:15:33;;;;;;;7.13;2.58;;;10.90;99.90;;;;;;5114015;28;20024;-73
2022/10/12 05:17:59;;;;;;;6.18;1.77;;;10.90;99.90;;;;;;5095358;28;20036;-73
2022/10/12 05:20:25;;;;;;;6.68;2.40;;;10.80;99.90;;;;;;5095788;28;20028;-73
2022/10/12 05:22:50;;;;;;;8.00;2.47;;;10.80;99.90;;;;;;5094975;28;20039;-73
2022/10/12 05:25:18;;;;;;;10.27;2.38;;;10.80;99.90;;;;;;5095524;28;20047;-73
2022/10/12 05:27:43;;;;;;;7.72;2.03;;;10.80;99.90;;;;;;5113181;28;20066;-73
2022/10/12 05:30:09;;;;;;;7.25;2.10;;;10.80;99.90;;;;;;5095607;28;20051;-73
2022/10/12 05:32:35;;;;;;;7.53;2.42;;;10.80;99.90;;;;;;5094994;28;20024;-74
2022/10/12 05:35:00;;;;;;;10.25;2.45;;;10.80;99.90;;;;;;5113466;28;20052;-73
2022/10/12 05:37:26;;;;;;;6.90;2.20;;;10.80;99.90;;;;;;5113698;28;20034;-73
2022/10/12 05:39:52;;;;;;;9.50;2.67;;;10.80;99.90;;;;;;5094740;28;20028;-73
2022/10/12 05:42:17;;;;;;;12.20;2.50;;;10.80;99.90;;;;;;5095600;28;20122;-73
2022/10/12 05:44:43;;;;;;;7.43;2.17;;;10.70;99.90;;;;;;5094636;28;20110;-73
2022/10/12 05:47:09;;;;;;;9.43;2.30;;;10.60;99.90;;;;;;5095268;28;20070;-73
2022/10/12 05:49:34;;;;;;;6.93;2.03;;;10.70;99.90;;;;;;5095152;28;20474;-74
2022/10/12 05:52:00;;;;;;;4.57;1.80;;;10.70;99.90;;;;;;5094544;28;20426;-73
2022/10/12 05:54:26;;;;;;;8.55;1.92;;;10.70;99.90;;;;;;5095036;28;20027;-73
2022/10/12 05:56:52;;;;;;;8.40;2.33;;;10.70;99.90;;;;;;5093857;28;20131;-73
2022/10/12 05:59:18;;;;;;;11.32;2.38;;;10.70;99.90;;;;;;5095301;28;20110;-73
2022/10/12 06:01:43;;;;;;;8.15;2.67;;;10.70;99.90;;;;;;5094351;28;20457;-73
2022/10/12 06:04:09;;;;;;;9.85;2.70;;;10.70;99.90;;;;;;5094195;28;20035;-73
2022/10/12 06:06:35;;;;;;;10.02;2.30;;;10.70;99.90;;;;;;5094909;28;20035;-73
2022/10/12 06:09:01;;;;;;;11.00;2.78;;;10.70;99.90;;;;;;5093949;28;20031;-73
2022/10/12 06:11:26;;;;;;;9.73;3.20;;;10.70;99.90;;;;;;5094874;28;20036;-73
2022/10/12 06:13:53;;;;;;;6.85;2.72;;;10.70;99.90;;;;;;5093718;28;20118;-73
2022/10/12 06:16:19;;;;;;;11.93;2.25;;;10.70;99.90;;;;;;5112876;28;20016;-73
2022/10/12 06:18:45;;;;;;;7.55;2.45;;;10.70;99.90;;;;;;5093891;28;20023;-74
2022/10/12 06:21:10;;;;;;;9.75;2.22;;;10.70;99.90;;;;;;5113123;28;20031;-73
2022/10/12 06:23:36;;;;;;;8.57;1.98;;;10.70;99.90;;;;;;5094685;28;20127;-73
2022/10/12 06:26:01;;;;;;;10.90;2.70;;;10.70;99.90;;;;;;5112101;28;20055;-73
2022/10/12 06:28:27;;;;;;;12.40;2.67;;;10.70;99.90;;;;;;5094607;28;20035;-73
2022/10/12 06:30:58;;;;;;;7.22;2.15;;;10.70;99.90;;;;;;5093653;28;20537;-74
2022/10/12 06:33:24;;;;;;;9.18;2.95;;;10.80;99.90;;;;;;5093679;28;20019;-73
2022/10/12 06:35:50;;;;;;;8.43;2.53;;;10.80;99.90;;;;;;5093321;28;20034;-73
2022/10/12 06:38:16;;;;;;;11.23;2.67;;;10.90;99.90;;;;;;5093982;28;20080;-73
2022/10/12 06:40:42;;;;;;;12.90;2.88;;;10.90;99.90;;;;;;5093582;28;20027;-74
2022/10/12 06:43:08;;;;;;;6.47;2.35;;;10.90;99.90;;;;;;5094553;28;20429;-73
2022/10/12 06:45:34;;;;;;;11.52;2.83;;;11.00;99.90;;;;;;5112735;28;20023;-74
2022/10/12 06:48:00;;;;;;;14.40;2.80;;;11.10;99.90;;;;;;5093797;28;20032;-74
2022/10/12 06:50:26;;;;;;;11.43;2.53;;;11.20;99.90;;;;;;5094431;28;20029;-74
2022/10/12 06:52:52;;;;;;;10.48;2.75;;;11.20;99.90;;;;;;5093435;28;20460;-74
2022/10/12 06:55:18;;;;;;;9.00;2.08;;;11.20;99.90;;;;;;5094371;28;20027;-74
2022/10/12 06:57:44;;;;;;;8.63;2.63;;;11.30;99.90;;;;;;5093472;28;20050;-74
2022/10/12 07:00:11;;;;;;;5.38;2.95;;;11.30;99.90;;;;;;5094014;28;20484;-74
2022/10/12 07:02:37;;;;;;;15.15;3.00;;;11.40;99.90;;;;;;5094087;28;20459;-74
2022/10/12 07:05:03;;;;;;;5.95;2.33;;;11.40;99.90;;;;;;5093458;28;20081;-74
2022/10/12 07:07:30;;;;;;;10.77;2.55;;;11.40;99.90;;;;;;5094137;28;20413;-74
2022/10/12 07:09:56;;;;;;;8.90;2.42;;;11.50;99.90;;;;;;5111552;28;20034;-74
2022/10/12 07:12:21;;;;;;;12.30;3.38;;;11.50;99.90;;;;;;5094193;28;20016;-74
2022/10/12 07:14:47;;;;;;;7.07;2.65;;;11.60;99.90;;;;;;5093775;28;20030;-75
2022/10/12 07:17:13;;;;;;;7.75;2.88;;;11.60;99.90;;;;;;5116445;28;20042;-74
2022/10/12 07:19:38;;;;;;;11.52;3.50;;;11.70;99.90;;;;;;5098119;28;20110;-73
2022/10/12 07:22:04;;;;;;;9.23;2.88;;;11.70;99.90;;;;;;5097476;28;20024;-73
2022/10/12 07:24:35;;;;;;;8.38;2.83;;;11.70;99.90;;;;;;5115979;28;20050;-73
2022/10/12 07:27:02;;;;;;;9.80;2.70;;;11.80;99.90;;;;;;5115620;28;20139;-73
2022/10/12 07:29:30;;;;;;;7.63;2.95;;;11.90;99.90;;;;;;5097671;28;20053;-73
2022/10/12 07:31:56;;;;;;;9.43;3.25;;;11.90;99.90;;;;;;5097102;28;20505;-73
2022/10/12 07:34:22;;;;;;;16.00;3.38;;;11.90;99.90;;;;;;5116141;28;20030;-73
2022/10/12 07:36:48;;;;;;;8.10;2.35;;;11.90;99.90;;;;;;5096995;28;20403;-74
2022/10/12 07:39:13;;;;;;;9.05;3.13;;;11.90;99.90;;;;;;5097809;28;20083;-73
2022/10/12 07:41:39;;;;;;;7.60;2.97;;;12.00;99.90;;;;;;5097747;28;20063;-72
2022/10/12 07:44:04;;;;;;;9.93;2.88;;;12.10;99.90;;;;;;5096862;28;20027;-73
2022/10/12 07:46:30;;;;;;;10.65;2.90;;;12.10;99.90;;;;;;5097135;28;20514;-72
2022/10/12 07:48:56;;;;;;;7.00;2.78;;;12.00;99.90;;;;;;5114909;28;20477;-73
2022/10/12 07:51:22;;;;;;;8.38;2.75;;;12.10;99.90;;;;;;5115744;28;20062;-73
2022/10/12 07:53:49;;;;;;;9.00;3.08;;;12.00;99.90;;;;;;5089165;28;20048;-73
2022/10/12 07:56:15;;;;;;;9.60;2.90;;;12.00;99.90;;;;;;5104948;28;20043;-73
2022/10/12 07:58:46;;;;;;;6.38;2.72;;;12.00;99.90;;;;;;5088206;28;20084;-74
2022/10/12 08:01:11;;;;;;;9.25;3.95;;;12.10;99.90;;;;;;5086286;28;20020;-72
2022/10/12 08:03:37;;;;;;;6.75;3.10;;;12.20;99.90;;;;;;5084828;28;20115;-73
2022/10/12 08:06:14;;;;;;;14.40;3.47;;;12.30;99.90;;;;;;5103596;28;20579;-73
2022/10/12 08:08:40;;;;;;;10.93;3.30;;;12.30;99.90;;;;;;5087210;28;20111;-73
2022/10/12 08:11:07;;;;;;;17.65;4.43;;;12.40;99.90;;;;;;5085922;28;20189;-74
2022/10/12 08:13:33;;;;;;;16.25;4.70;;;12.60;99.90;;;;;;5086005;28;20551;-74
2022/10/12 08:16:01;;;;;;;13.90;4.97;;;12.60;99.90;;;;;;5103117;28;20507;-73
2022/10/12 08:18:27;;;;;;;16.30;5.07;;;12.70;99.90;;;;;;5085753;28;20046;-74
2022/10/12 08:20:53;;;;;;;12.90;4.50;;;12.70;99.90;;;;;;5086389;28;20023;-74
2022/10/12 08:23:18;;;;;;;11.30;4.78;;;12.80;99.90;;;;;;5087955;28;20028;-74
2022/10/12 08:25:55;;;;;;;18.63;4.55;;;12.80;99.90;;;;;;5095802;28;20396;-75
2022/10/12 08:28:21;;;;;;;12.55;4.40;;;12.80;99.90;;;;;;5114135;28;20047;-73
2022/10/12 08:30:47;;;;;;;15.95;4.78;;;12.80;99.90;;;;;;5095783;28;20028;-74
2022/10/12 08:33:13;;;;;;;12.70;4.45;;;12.80;99.90;;;;;;5096191;28;20024;-73
2022/10/12 08:35:39;;;;;;;11.35;4.32;;;12.80;99.90;;;;;;5114844;28;20072;-73
2022/10/12 08:38:06;;;;;;;11.75;4.38;;;12.90;99.90;;;;;;5095449;28;20058;-72
2022/10/12 08:40:40;;;;;;;13.32;4.60;;;12.80;99.90;;;;;;5114463;28;20085;-72
2022/10/12 08:43:27;;;;;;;15.35;4.90;;;12.80;99.90;;;;;;5095675;28;20015;-74
2022/10/12 08:45:59;;;;;;;14.27;5.00;;;12.90;99.90;;;;;;5083950;28;20551;-74
2022/10/12 08:48:57;;;;;;;11.60;4.68;;;12.90;99.90;;;;;;5096040;28;20038;-73
2022/10/12 08:51:26;;;;;;;10.68;5.05;;;13.00;99.90;;;;;;5089450;28;20038;-73
2022/10/12 08:54:00;;;;;;;17.30;5.70;;;13.00;99.90;;;;;;5095523;28;20096;-73
2022/10/12 08:56:26;;;;;;;13.18;4.90;;;12.90;99.90;;;;;;5114943;28;20468;-73
2022/10/12 08:58:52;;;;;;;14.40;5.40;;;12.90;99.90;;;;;;5096022;28;20028;-73
2022/10/12 09:01:37;;;;;;;14.57;5.35;;;12.90;99.90;;;;;;5114797;28;20034;-73
2022/10/12 09:04:24;;;;;;;12.93;4.50;;;12.90;99.90;;;;;;5094735;28;20459;-71
2022/10/12 09:07:26;;;;;;;15.02;4.35;;;12.90;99.90;;;;;;5113253;28;20103;-73
2022/10/12 09:10:00;;;;;;;16.17;5.15;;;12.90;99.90;;;;;;5095247;28;20023;-73
2022/10/12 09:12:25;;;;;;;15.18;4.72;;;12.90;99.90;;;;;;5095870;28;20023;-73
2022/10/12 09:14:56;;;;;;;14.25;5.03;;;12.90;99.90;;;;;;5113206;28;20020;-74
2022/10/12 09:17:26;;;;;;;12.25;5.15;;;12.90;99.90;;;;;;5080814;28;20510;-75
2022/10/12 09:20:34;;;;;;;9.20;4.85;;;12.90;99.90;;;;;;5082742;28;20024;-75
2022/10/12 09:23:23;;;;;;;7.75;4.25;;;12.90;99.90;;;;;;5071384;28;20084;-73
2022/10/12 09:25:49;;;;;;;13.10;5.57;;;12.90;99.90;;;;;;5087786;28;20043;-74
2022/10/12 09:28:37;;;;;;;16.58;5.55;;;13.00;99.90;;;;;;5094814;28;20387;-76
2022/10/12 09:31:06;;;;;;;13.25;5.20;;;12.90;99.90;;;;;;5086536;28;20032;-75
2022/10/12 09:33:47;;;;;;;13.20;5.07;;;13.00;99.90;;;;;;5112669;28;20086;-75
2022/10/12 09:36:18;;;;;;;14.20;5.50;;;13.00;99.90;;;;;;5094190;28;20027;-75
2022/10/12 09:38:44;;;;;;;12.75;5.53;;;13.10;99.90;;;;;;5074747;28;20062;-74
2022/10/12 09:41:22;;;;;;;15.23;5.88;;;13.10;99.90;;;;;;5081026;28;20190;-75
2022/10/12 09:43:52;;;;;;;14.93;4.95;;;13.20;99.90;;;;;;5094566;28;20031;-76
2022/10/12 09:46:26;;;;;;;12.32;5.78;;;13.10;99.90;;;;;;5094364;28;20468;-74
2022/10/12 09:48:57;;;;;;;14.88;5.30;;;13.20;99.90;;;;;;5112533;28;20055;-75
2022/10/12 09:51:23;;;;;;;13.00;5.80;;;13.20;99.90;;;;;;5092471;28;20024;-77
2022/10/12 09:53:49;;;;;;;9.75;4.97;;;13.30;99.90;;;;;;5093898;28;20047;-75
2022/10/12 09:56:24;;;;;;;17.27;5.63;;;13.30;99.90;;;;;;5093805;28;20035;-75
2022/10/12 09:58:54;;;;;;;16.33;5.82;;;13.40;99.90;;;;;;5092688;28;20416;-75
2022/10/12 10:01:22;;;;;;;11.35;5.53;;;13.40;99.90;;;;;;5112077;28;20106;-74
2022/10/12 10:04:04;;;;;;;15.43;5.13;;;13.50;99.90;;;;;;5094382;28;20447;-76
2022/10/12 10:06:30;;;;;;;13.25;5.55;;;13.60;99.90;;;;;;5094407;28;20023;-76
2022/10/12 10:08:57;;;;;;;15.10;5.53;;;13.60;99.90;;;;;;5112509;28;20023;-75
2022/10/12 10:11:26;;;;;;;12.13;5.28;;;13.60;99.90;;;;;;5094923;28;20030;-75
2022/10/12 10:13:53;;;;;;;13.65;5.32;;;13.60;99.90;;;;;;5094656;28;20138;-77
2022/10/12 10:16:23;;;;;;;10.23;5.25;;;13.70;99.90;;;;;;5094614;28;20031;-76
2022/10/12 10:18:57;;;;;;;14.90;5.05;;;13.70;99.90;;;;;;5094288;28;20026;-76
2022/10/12 10:21:36;;;;;;;11.27;5.53;;;13.70;99.90;;;;;;5094489;28;20483;-74
2022/10/12 10:24:17;;;;;;;13.70;5.32;;;13.80;99.90;;;;;;5089147;28;20392;-74
2022/10/12 10:26:57;;;;;;;13.80;5.63;;;13.80;99.90;;;;;;5111434;28;20039;-73
2022/10/12 10:29:31;;;;;;;15.88;6.13;;;13.80;99.90;;;;;;5094036;28;20024;-73
2022/10/12 10:32:26;;;;;;;17.63;5.43;;;13.80;99.90;;;;;;5093490;28;20038;-75
2022/10/12 10:35:10;;;;;;;15.73;5.35;;;13.90;99.90;;;;;;5092002;28;20016;-76
2022/10/12 10:37:36;;;;;;;12.52;5.57;;;13.90;99.90;;;;;;5094201;28;20096;-74
2022/10/12 10:40:03;;;;;;;11.98;5.45;;;14.00;99.90;;;;;;5090695;28;20078;-75
2022/10/12 10:42:31;;;;;;;16.30;6.15;;;14.00;99.90;;;;;;5093214;28;20028;-75
2022/10/12 10:45:03;;;;;;;10.60;5.60;;;14.10;99.90;;;;;;5092978;28;20042;-75
2022/10/12 10:47:31;;;;;;;12.40;6.10;;;14.10;99.90;;;;;;5104039;28;20499;-76
2022/10/12 10:50:00;;;;;;;14.63;5.43;;;14.20;99.90;;;;;;5110773;28;20055;-76
2022/10/12 10:52:31;;;;;;;10.18;5.50;;;14.30;99.90;;;;;;5093786;28;20023;-76
2022/10/12 10:55:09;;;;;;;11.27;5.68;;;14.30;99.90;;;;;;5112620;28;20027;-77
2022/10/12 10:57:40;;;;;;;17.10;5.85;;;14.30;99.90;;;;;;5109569;28;20482;-78
2022/10/12 11:00:13;;;;;;;12.38;5.60;;;14.40;99.90;;;;;;5096266;28;20030;-78
2022/10/12 11:02:55;;;;;;;11.63;5.22;;;14.50;99.90;;;;;;5095275;28;20023;-78
2022/10/12 11:05:23;;;;;;;;;;;14.50;99.90;;;;;;5095966;28;20114;-78
2022/10/12 11:07:58;;;;;;;14.45;4.82;;;14.50;99.90;;;;;;5113496;28;19907;-78
2022/10/12 11:10:29;;;;;;;12.88;5.75;;;14.50;99.90;;;;;;5095049;28;20020;-78
2022/10/12 11:13:16;;;;;;;11.10;5.33;;;14.60;99.90;;;;;;5094799;28;20456;-78
2022/10/12 11:15:47;;;;;;;22.02;8.35;;;14.70;99.90;;;;;;5095297;28;20016;-78
2022/10/12 11:18:20;;;;;;;13.63;6.23;;;14.70;99.90;;;;;;5112523;28;20116;-78
2022/10/12 11:20:57;;;;;;;12.82;5.50;;;14.70;99.90;;;;;;5095048;28;20343;-78
2022/10/12 11:23:39;;;;;;;12.15;5.55;;;14.90;99.90;;;;;;5095211;28;20024;-78
2022/10/12 11:26:16;;;;;;;12.35;5.53;;;14.90;99.90;;;;;;5112646;28;20036;-78
2022/10/12 11:28:42;;;;;;;12.38;5.75;;;15.00;99.90;;;;;;5095076;28;20448;-78
2022/10/12 11:31:36;;;;;;;13.68;5.72;;;15.00;99.90;;;;;;5094375;28;20026;-78
2022/10/12 11:34:05;;;;;;;12.65;4.72;;;15.00;99.90;;;;;;5094543;28;20130;-78
2022/10/12 11:36:36;;;;;;;15.63;5.25;;;15.20;99.90;;;;;;5094877;28;20015;-78
2022/10/12 11:39:13;;;;;;;10.45;5.43;;;15.50;99.90;;;;;;5094602;28;20026;-78
2022/10/12 11:41:47;;;;;;;10.10;5.05;;;15.60;99.90;;;;;;5094874;28;20027;-77
2022/10/12 11:44:23;;;;;;;10.23;5.22;;;15.70;99.90;;;;;;5094397;28;20030;-78
2022/10/12 11:46:58;;;;;;;10.63;4.90;;;15.90;99.90;;;;;;5094867;28;20469;-78
2022/10/12 11:49:59;;;;;;;11.60;4.82;;;16.00;99.90;;;;;;5094777;28;20024;-78
2022/10/12 11:52:34;;;;;;;9.13;4.70;;;16.00;99.90;;;;;;5094780;28;20022;-77
2022/10/12 11:55:31;;;;;;;12.30;5.28;;;16.30;99.90;;;;;;5094198;28;20398;-78
2022/10/12 11:58:03;;;;;;;11.55;4.88;;;16.50;99.90;;;;;;5093899;28;20056;-79
2022/10/12 12:00:57;;;;;;;9.80;5.22;;;16.50;99.90;;;;;;5094762;28;20368;-78
2022/10/12 12:03:44;;;;;;;11.90;5.03;;;16.80;99.90;;;;;;5097463;28;20024;-78
2022/10/12 12:06:28;;;;;;;9.73;4.72;;;17.00;99.90;;;;;;5115752;28;20020;-78
2022/10/12 12:08:57;;;;;;;10.50;5.75;;;17.20;99.90;;;;;;5116373;28;20131;-78
2022/10/12 12:11:25;;;;;;;11.30;4.55;;;17.40;99.90;;;;;;5098050;28;20486;-78
2022/10/12 12:14:20;;;;;;;8.80;4.60;;;17.60;99.90;;;;;;5098124;28;20023;-78
2022/10/12 12:16:49;;;;;;;8.93;4.50;;;17.80;99.90;;;;;;5097820;28;20115;-77
2022/10/12 12:19:35;;;;;;;9.32;3.72;;;18.10;99.90;;;;;;5097602;28;20020;-78
2022/10/12 12:22:17;;;;;;;12.02;4.70;;;18.30;99.90;;;;;;5097420;28;20027;-78
2022/10/12 12:25:04;;;;;;;9.70;4.70;;;18.50;99.90;;;;;;5097453;28;20047;-77
2022/10/12 12:27:38;;;;;;;11.07;4.85;;;18.70;99.90;;;;;;5098055;28;20031;-78
2022/10/12 12:30:24;;;;;;;11.93;5.00;;;19.00;99.90;;;;;;5097405;28;20019;-78
2022/10/12 12:32:54;;;;;;;12.07;4.60;;;19.20;99.90;;;;;;5097616;28;20019;-78
2022/10/12 12:35:35;;;;;;;10.00;4.82;;;19.40;99.90;;;;;;5097253;28;20031;-78
2022/10/12 12:38:07;;;;;;;11.57;4.45;;;19.70;99.90;;;;;;5097054;28;20035;-79
2022/10/12 12:40:33;;;;;;;12.18;4.53;;;20.10;99.90;;;;;;5097824;28;20043;-78
2022/10/12 12:43:18;;;;;;;12.50;4.68;;;20.70;99.90;;;;;;5097759;28;20023;-79
2022/10/12 12:45:59;;;;;;;10.52;4.15;;;21.20;99.90;;;;;;5097841;28;20027;-80
2022/10/12 12:48:37;;;;;;;8.63;4.38;;;21.60;99.90;;;;;;5097979;28;20031;-79
2022/10/12 12:51:07;;;;;;;7.75;4.03;;;22.00;99.90;;;;;;5115635;28;20030;-79
2022/10/12 12:53:47;;;;;;;9.90;4.20;;;22.40;99.90;;;;;;5098099;28;20060;-79
2022/10/12 12:57:06;;;;;;;9.07;3.78;;;22.80;99.30;;;;;;5052680;28;20037;-79
2022/10/12 12:59:46;;;;;;;8.45;3.72;;;23.30;98.50;;;;;;4938695;29;20043;-79
2022/10/12 13:02:30;;;;;;;9.98;4.18;;;23.20;97.80;;;;;;5041574;28;20033;-79